Arties, Catalunya

latitud = 42° 42' 01''N | longitud = 00° 52' 37''E
1161 metros sobre el nivel del mar | datos mensuales

Fecha, hora, temperatura, viento dirección y velocidad, humedad y presión.

  • 25-09-2017 00:00:00 | 11.70°C | Calma |0.00 km/h | 81.00% | 0.00 hPa
  • 24-09-2017 23:00:00 | 12.10°C | Nordeste |3.00 km/h | 80.00% | 0.00 hPa
  • 24-09-2017 22:00:00 | 13.60°C | Nordeste |6.00 km/h | 75.00% | 0.00 hPa
  • 24-09-2017 21:00:00 | 13.80°C | Calma |0.00 km/h | 74.00% | 0.00 hPa
  • 24-09-2017 20:00:00 | 16.10°C | Nordeste |2.00 km/h | 67.00% | 0.00 hPa
  • 24-09-2017 19:00:00 | 20.30°C | Sudoeste |3.00 km/h | 49.00% | 0.00 hPa
  • 24-09-2017 18:00:00 | 22.70°C | Sudoeste |5.00 km/h | 41.00% | 0.00 hPa
  • 24-09-2017 17:00:00 | 24.40°C | Sudoeste |5.00 km/h | 38.00% | 0.00 hPa
  • 24-09-2017 16:00:00 | 25.90°C | Sudoeste |5.00 km/h | 37.00% | 0.00 hPa
  • 24-09-2017 15:00:00 | 25.80°C | Sudoeste |5.00 km/h | 36.00% | 0.00 hPa
  • 24-09-2017 14:00:00 | 25.10°C | Sudoeste |5.00 km/h | 37.00% | 0.00 hPa
  • 24-09-2017 13:00:00 | 23.70°C | Sudoeste |5.00 km/h | 41.00% | 0.00 hPa
  • 24-09-2017 12:00:00 | 19.80°C | Calma |0.00 km/h | 58.00% | 0.00 hPa
  • 24-09-2017 11:00:00 | 16.20°C | Calma |0.00 km/h | 70.00% | 0.00 hPa
  • 24-09-2017 10:00:00 | 11.80°C | Calma |0.00 km/h | 83.00% | 0.00 hPa
  • 24-09-2017 09:00:00 | 9.50°C | Calma |0.00 km/h | 84.00% | 0.00 hPa
  • 24-09-2017 08:00:00 | 9.50°C | Este |5.00 km/h | 81.00% | 0.00 hPa
  • 24-09-2017 07:00:00 | 8.90°C | Nordeste |4.00 km/h | 85.00% | 0.00 hPa
  • 24-09-2017 06:00:00 | 7.80°C | Calma |0.00 km/h | 89.00% | 0.00 hPa
  • 24-09-2017 05:00:00 | 9.20°C | Nordeste |3.00 km/h | 84.00% | 0.00 hPa
  • 24-09-2017 04:00:00 | 9.40°C | Nordeste |6.00 km/h | 84.00% | 0.00 hPa
  • 24-09-2017 03:00:00 | 10.00°C | Nordeste |5.00 km/h | 82.00% | 0.00 hPa
  • 24-09-2017 02:00:00 | 9.20°C | Calma |0.00 km/h | 87.00% | 0.00 hPa
  • 24-09-2017 01:00:00 | 9.90°C | Calma |0.00 km/h | 84.00% | 0.00 hPa